sensor_id;sensor_type;location;lat;lon;timestamp;temperature;humidity
18147;DHT22;9199;48.832;9.182;2023-05-25T00:01:06;10.30;99.90
18147;DHT22;9199;48.832;9.182;2023-05-25T00:03:33;10.20;99.90
18147;DHT22;9199;48.832;9.182;2023-05-25T00:06:00;10.10;99.90
18147;DHT22;9199;48.832;9.182;2023-05-25T00:08:27;10.00;99.90
18147;DHT22;9199;48.832;9.182;2023-05-25T00:10:54;10.10;99.90
18147;DHT22;9199;48.832;9.182;2023-05-25T00:13:21;10.10;99.90
18147;DHT22;9199;48.832;9.182;2023-05-25T00:15:49;10.10;99.90
18147;DHT22;9199;48.832;9.182;2023-05-25T00:18:16;10.10;99.90
18147;DHT22;9199;48.832;9.182;2023-05-25T00:20:43;10.20;99.90
18147;DHT22;9199;48.832;9.182;2023-05-25T00:23:10;10.20;99.90
18147;DHT22;9199;48.832;9.182;2023-05-25T00:25:37;10.20;99.90
18147;DHT22;9199;48.832;9.182;2023-05-25T00:28:03;10.20;99.90
18147;DHT22;9199;48.832;9.182;2023-05-25T00:30:30;10.30;99.90
18147;DHT22;9199;48.832;9.182;2023-05-25T00:32:58;10.30;99.90
18147;DHT22;9199;48.832;9.182;2023-05-25T00:35:25;10.30;99.90
18147;DHT22;9199;48.832;9.182;2023-05-25T00:37:52;10.40;99.90
18147;DHT22;9199;48.832;9.182;2023-05-25T00:40:19;10.40;99.90
18147;DHT22;9199;48.832;9.182;2023-05-25T00:42:46;10.40;99.90
18147;DHT22;9199;48.832;9.182;2023-05-25T00:45:13;10.50;99.90
18147;DHT22;9199;48.832;9.182;2023-05-25T00:47:39;10.50;99.90
18147;DHT22;9199;48.832;9.182;2023-05-25T00:50:09;10.50;99.90
18147;DHT22;9199;48.832;9.182;2023-05-25T00:52:40;10.60;99.90
18147;DHT22;9199;48.832;9.182;2023-05-25T00:55:08;10.60;99.90
18147;DHT22;9199;48.832;9.182;2023-05-25T00:57:39;10.60;99.90
18147;DHT22;9199;48.832;9.182;2023-05-25T01:00:11;10.70;99.90
18147;DHT22;9199;48.832;9.182;2023-05-25T01:02:40;10.70;99.90
18147;DHT22;9199;48.832;9.182;2023-05-25T01:05:09;10.60;99.90
18147;DHT22;9199;48.832;9.182;2023-05-25T01:07:38;10.60;99.90
18147;DHT22;9199;48.832;9.182;2023-05-25T01:10:08;10.50;99.90
18147;DHT22;9199;48.832;9.182;2023-05-25T01:12:37;10.50;99.90
18147;DHT22;9199;48.832;9.182;2023-05-25T01:15:07;10.40;99.90
18147;DHT22;9199;48.832;9.182;2023-05-25T01:17:34;10.40;99.90
18147;DHT22;9199;48.832;9.182;2023-05-25T01:20:03;10.30;99.90
18147;DHT22;9199;48.832;9.182;2023-05-25T01:22:35;10.30;99.90
18147;DHT22;9199;48.832;9.182;2023-05-25T01:25:08;10.20;99.90
18147;DHT22;9199;48.832;9.182;2023-05-25T01:27:40;10.30;99.90
18147;DHT22;9199;48.832;9.182;2023-05-25T01:30:16;10.20;99.90
18147;DHT22;9199;48.832;9.182;2023-05-25T01:32:45;10.20;99.90
18147;DHT22;9199;48.832;9.182;2023-05-25T01:35:12;10.20;99.90
18147;DHT22;9199;48.832;9.182;2023-05-25T01:37:46;10.10;99.90
18147;DHT22;9199;48.832;9.182;2023-05-25T01:40:13;10.10;99.90
18147;DHT22;9199;48.832;9.182;2023-05-25T01:42:40;10.10;99.90
18147;DHT22;9199;48.832;9.182;2023-05-25T01:45:15;10.10;99.90
18147;DHT22;9199;48.832;9.182;2023-05-25T01:47:45;10.10;99.90
18147;DHT22;9199;48.832;9.182;2023-05-25T01:50:17;10.10;99.90
18147;DHT22;9199;48.832;9.182;2023-05-25T01:52:52;10.00;99.90
18147;DHT22;9199;48.832;9.182;2023-05-25T01:55:21;10.10;99.90
18147;DHT22;9199;48.832;9.182;2023-05-25T01:57:52;10.10;99.90
18147;DHT22;9199;48.832;9.182;2023-05-25T02:00:24;10.00;99.90
18147;DHT22;9199;48.832;9.182;2023-05-25T02:02:51;9.90;99.90
18147;DHT22;9199;48.832;9.182;2023-05-25T02:05:19;9.90;99.90
18147;DHT22;9199;48.832;9.182;2023-05-25T02:07:46;9.80;99.90
18147;DHT22;9199;48.832;9.182;2023-05-25T02:10:13;9.70;99.90
18147;DHT22;9199;48.832;9.182;2023-05-25T02:12:39;9.70;99.90
18147;DHT22;9199;48.832;9.182;2023-05-25T02:15:07;9.60;99.90
18147;DHT22;9199;48.832;9.182;2023-05-25T02:17:35;9.70;99.90
18147;DHT22;9199;48.832;9.182;2023-05-25T02:20:03;9.60;99.90
18147;DHT22;9199;48.832;9.182;2023-05-25T02:22:30;9.60;99.90
18147;DHT22;9199;48.832;9.182;2023-05-25T02:24:57;9.60;99.90
18147;DHT22;9199;48.832;9.182;2023-05-25T02:27:24;9.60;99.90
18147;DHT22;9199;48.832;9.182;2023-05-25T02:29:51;9.60;99.90
18147;DHT22;9199;48.832;9.182;2023-05-25T02:32:18;9.60;99.90
18147;DHT22;9199;48.832;9.182;2023-05-25T02:34:46;9.60;99.90
18147;DHT22;9199;48.832;9.182;2023-05-25T02:37:13;9.60;99.90
18147;DHT22;9199;48.832;9.182;2023-05-25T02:39:40;9.50;99.90
18147;DHT22;9199;48.832;9.182;2023-05-25T02:42:07;9.50;99.90
18147;DHT22;9199;48.832;9.182;2023-05-25T02:44:33;9.50;99.90
18147;DHT22;9199;48.832;9.182;2023-05-25T02:47:00;9.50;99.90
18147;DHT22;9199;48.832;9.182;2023-05-25T02:49:27;9.40;99.90
18147;DHT22;9199;48.832;9.182;2023-05-25T02:51:55;9.30;99.90
18147;DHT22;9199;48.832;9.182;2023-05-25T02:54:22;9.30;99.90
18147;DHT22;9199;48.832;9.182;2023-05-25T02:56:48;9.30;99.90
18147;DHT22;9199;48.832;9.182;2023-05-25T02:59:15;9.30;99.90
18147;DHT22;9199;48.832;9.182;2023-05-25T03:01:42;9.30;99.90
18147;DHT22;9199;48.832;9.182;2023-05-25T03:04:09;9.30;99.90
18147;DHT22;9199;48.832;9.182;2023-05-25T03:06:35;9.30;99.90
18147;DHT22;9199;48.832;9.182;2023-05-25T03:09:03;9.20;99.90
18147;DHT22;9199;48.832;9.182;2023-05-25T03:11:31;9.30;99.90
18147;DHT22;9199;48.832;9.182;2023-05-25T03:13:58;9.20;99.90
18147;DHT22;9199;48.832;9.182;2023-05-25T03:16:24;9.20;99.90
18147;DHT22;9199;48.832;9.182;2023-05-25T03:18:51;9.20;99.90
18147;DHT22;9199;48.832;9.182;2023-05-25T03:21:18;9.10;99.90
18147;DHT22;9199;48.832;9.182;2023-05-25T03:23:46;9.10;99.90
18147;DHT22;9199;48.832;9.182;2023-05-25T03:26:14;9.10;99.90
18147;DHT22;9199;48.832;9.182;2023-05-25T03:28:41;9.10;99.90
18147;DHT22;9199;48.832;9.182;2023-05-25T03:31:08;9.10;99.90
18147;DHT22;9199;48.832;9.182;2023-05-25T03:33:35;9.00;99.90
18147;DHT22;9199;48.832;9.182;2023-05-25T03:36:05;9.00;99.90
18147;DHT22;9199;48.832;9.182;2023-05-25T03:38:33;9.00;99.90
18147;DHT22;9199;48.832;9.182;2023-05-25T03:40:59;8.90;99.90
18147;DHT22;9199;48.832;9.182;2023-05-25T03:43:27;8.90;99.90
18147;DHT22;9199;48.832;9.182;2023-05-25T03:45:54;8.90;99.90
18147;DHT22;9199;48.832;9.182;2023-05-25T03:48:21;8.90;99.90
18147;DHT22;9199;48.832;9.182;2023-05-25T03:50:47;8.90;99.90
18147;DHT22;9199;48.832;9.182;2023-05-25T03:53:14;8.90;99.90
18147;DHT22;9199;48.832;9.182;2023-05-25T03:55:41;8.90;99.90
18147;DHT22;9199;48.832;9.182;2023-05-25T03:58:08;8.90;99.90
18147;DHT22;9199;48.832;9.182;2023-05-25T04:00:36;8.90;99.90
18147;DHT22;9199;48.832;9.182;2023-05-25T04:03:03;9.00;99.90
18147;DHT22;9199;48.832;9.182;2023-05-25T04:05:31;9.00;99.90
18147;DHT22;9199;48.832;9.182;2023-05-25T04:07:57;9.00;99.90
18147;DHT22;9199;48.832;9.182;2023-05-25T04:10:24;9.00;99.90
18147;DHT22;9199;48.832;9.182;2023-05-25T04:12:51;9.00;99.90
18147;DHT22;9199;48.832;9.182;2023-05-25T04:15:21;9.00;99.90
18147;DHT22;9199;48.832;9.182;2023-05-25T04:17:49;9.00;99.90
18147;DHT22;9199;48.832;9.182;2023-05-25T04:20:16;9.00;99.90
18147;DHT22;9199;48.832;9.182;2023-05-25T04:22:43;9.10;99.90
18147;DHT22;9199;48.832;9.182;2023-05-25T04:25:09;9.10;99.90
18147;DHT22;9199;48.832;9.182;2023-05-25T04:27:36;9.10;99.90
18147;DHT22;9199;48.832;9.182;2023-05-25T04:30:04;9.20;99.90
18147;DHT22;9199;48.832;9.182;2023-05-25T04:32:30;9.30;99.90
18147;DHT22;9199;48.832;9.182;2023-05-25T04:35:03;10.10;99.90
18147;DHT22;9199;48.832;9.182;2023-05-25T04:37:30;10.80;99.90
18147;DHT22;9199;48.832;9.182;2023-05-25T04:39:57;11.20;99.90
18147;DHT22;9199;48.832;9.182;2023-05-25T04:42:24;11.40;99.90
18147;DHT22;9199;48.832;9.182;2023-05-25T04:44:51;11.50;99.90
18147;DHT22;9199;48.832;9.182;2023-05-25T04:47:20;11.70;99.90
18147;DHT22;9199;48.832;9.182;2023-05-25T04:49:46;11.90;99.90
18147;DHT22;9199;48.832;9.182;2023-05-25T04:52:14;12.30;99.90
18147;DHT22;9199;48.832;9.182;2023-05-25T04:54:41;12.50;99.90
18147;DHT22;9199;48.832;9.182;2023-05-25T04:57:08;12.60;99.90
18147;DHT22;9199;48.832;9.182;2023-05-25T04:59:34;12.80;99.90
18147;DHT22;9199;48.832;9.182;2023-05-25T05:02:01;13.00;99.90
18147;DHT22;9199;48.832;9.182;2023-05-25T05:04:28;13.00;99.90
18147;DHT22;9199;48.832;9.182;2023-05-25T05:06:55;13.00;99.90
18147;DHT22;9199;48.832;9.182;2023-05-25T05:09:23;12.90;99.90
18147;DHT22;9199;48.832;9.182;2023-05-25T05:11:50;13.00;99.90
18147;DHT22;9199;48.832;9.182;2023-05-25T05:14:16;13.10;99.90
18147;DHT22;9199;48.832;9.182;2023-05-25T05:16:43;13.20;99.90
18147;DHT22;9199;48.832;9.182;2023-05-25T05:19:10;13.20;99.90
18147;DHT22;9199;48.832;9.182;2023-05-25T05:21:36;13.20;99.90
18147;DHT22;9199;48.832;9.182;2023-05-25T05:24:03;12.90;99.90
18147;DHT22;9199;48.832;9.182;2023-05-25T05:26:31;12.80;99.90
18147;DHT22;9199;48.832;9.182;2023-05-25T05:28:58;12.60;99.90
18147;DHT22;9199;48.832;9.182;2023-05-25T05:31:25;12.40;99.90
18147;DHT22;9199;48.832;9.182;2023-05-25T05:33:52;12.30;99.90
18147;DHT22;9199;48.832;9.182;2023-05-25T05:36:18;12.20;99.90
18147;DHT22;9199;48.832;9.182;2023-05-25T05:38:45;12.20;99.90
18147;DHT22;9199;48.832;9.182;2023-05-25T05:41:12;12.30;99.90
18147;DHT22;9199;48.832;9.182;2023-05-25T05:43:40;12.40;99.90
18147;DHT22;9199;48.832;9.182;2023-05-25T05:46:08;12.50;99.90
18147;DHT22;9199;48.832;9.182;2023-05-25T05:48:35;12.50;99.90
18147;DHT22;9199;48.832;9.182;2023-05-25T05:51:02;12.50;99.90
18147;DHT22;9199;48.832;9.182;2023-05-25T05:53:29;12.50;99.90
18147;DHT22;9199;48.832;9.182;2023-05-25T05:55:56;12.50;99.90
18147;DHT22;9199;48.832;9.182;2023-05-25T05:58:24;12.60;99.90
18147;DHT22;9199;48.832;9.182;2023-05-25T06:00:53;12.60;99.90
18147;DHT22;9199;48.832;9.182;2023-05-25T06:03:22;12.80;99.90
18147;DHT22;9199;48.832;9.182;2023-05-25T06:05:49;12.80;99.90
18147;DHT22;9199;48.832;9.182;2023-05-25T06:08:15;13.00;99.90
18147;DHT22;9199;48.832;9.182;2023-05-25T06:10:42;13.00;99.90
18147;DHT22;9199;48.832;9.182;2023-05-25T06:13:09;13.10;99.90
18147;DHT22;9199;48.832;9.182;2023-05-25T06:15:36;13.30;99.90
18147;DHT22;9199;48.832;9.182;2023-05-25T06:18:04;13.50;99.90
18147;DHT22;9199;48.832;9.182;2023-05-25T06:20:31;13.60;99.90
18147;DHT22;9199;48.832;9.182;2023-05-25T06:23:00;13.80;99.90
18147;DHT22;9199;48.832;9.182;2023-05-25T06:25:26;13.90;99.90
18147;DHT22;9199;48.832;9.182;2023-05-25T06:27:53;14.10;99.90
18147;DHT22;9199;48.832;9.182;2023-05-25T06:30:20;14.30;99.90
18147;DHT22;9199;48.832;9.182;2023-05-25T06:32:47;14.60;99.90
18147;DHT22;9199;48.832;9.182;2023-05-25T06:35:15;14.70;99.90
18147;DHT22;9199;48.832;9.182;2023-05-25T06:37:44;14.70;99.90
18147;DHT22;9199;48.832;9.182;2023-05-25T06:40:11;14.60;99.90
18147;DHT22;9199;48.832;9.182;2023-05-25T06:42:38;14.60;99.90
18147;DHT22;9199;48.832;9.182;2023-05-25T06:45:06;14.60;99.90
18147;DHT22;9199;48.832;9.182;2023-05-25T06:47:33;14.80;99.90
18147;DHT22;9199;48.832;9.182;2023-05-25T06:50:00;15.10;99.90
18147;DHT22;9199;48.832;9.182;2023-05-25T06:52:28;15.40;99.90
18147;DHT22;9199;48.832;9.182;2023-05-25T06:54:55;15.80;99.40
18147;DHT22;9199;48.832;9.182;2023-05-25T06:57:22;15.80;99.30
18147;DHT22;9199;48.832;9.182;2023-05-25T06:59:49;15.60;99.50
18147;DHT22;9199;48.832;9.182;2023-05-25T07:02:16;15.40;99.30
18147;DHT22;9199;48.832;9.182;2023-05-25T07:04:43;15.30;99.50
18147;DHT22;9199;48.832;9.182;2023-05-25T07:07:10;15.20;99.90
18147;DHT22;9199;48.832;9.182;2023-05-25T07:09:39;14.90;99.80
18147;DHT22;9199;48.832;9.182;2023-05-25T07:12:06;14.70;99.90
18147;DHT22;9199;48.832;9.182;2023-05-25T07:14:34;14.60;99.90
18147;DHT22;9199;48.832;9.182;2023-05-25T07:17:01;14.50;99.90
18147;DHT22;9199;48.832;9.182;2023-05-25T07:19:27;14.40;99.90
18147;DHT22;9199;48.832;9.182;2023-05-25T07:21:54;14.50;99.90
18147;DHT22;9199;48.832;9.182;2023-05-25T07:24:21;14.50;99.90
18147;DHT22;9199;48.832;9.182;2023-05-25T07:26:49;14.60;99.90
18147;DHT22;9199;48.832;9.182;2023-05-25T07:29:15;14.70;99.90
18147;DHT22;9199;48.832;9.182;2023-05-25T07:31:42;14.60;99.90
18147;DHT22;9199;48.832;9.182;2023-05-25T07:34:09;14.70;99.90
18147;DHT22;9199;48.832;9.182;2023-05-25T07:36:36;14.70;99.90
18147;DHT22;9199;48.832;9.182;2023-05-25T07:39:02;14.70;99.90
18147;DHT22;9199;48.832;9.182;2023-05-25T07:41:29;14.80;99.90
18147;DHT22;9199;48.832;9.182;2023-05-25T07:43:57;14.80;99.90
18147;DHT22;9199;48.832;9.182;2023-05-25T07:46:24;14.90;99.90
18147;DHT22;9199;48.832;9.182;2023-05-25T07:48:51;15.10;99.90
18147;DHT22;9199;48.832;9.182;2023-05-25T07:51:19;15.30;99.90
18147;DHT22;9199;48.832;9.182;2023-05-25T07:53:47;15.60;99.90
18147;DHT22;9199;48.832;9.182;2023-05-25T07:56:14;15.80;99.90
18147;DHT22;9199;48.832;9.182;2023-05-25T07:58:40;16.00;99.90
18147;DHT22;9199;48.832;9.182;2023-05-25T08:01:08;16.20;99.90
18147;DHT22;9199;48.832;9.182;2023-05-25T08:03:35;16.30;99.90
18147;DHT22;9199;48.832;9.182;2023-05-25T08:06:02;16.50;99.90
18147;DHT22;9199;48.832;9.182;2023-05-25T08:08:29;16.60;99.90
18147;DHT22;9199;48.832;9.182;2023-05-25T08:10:55;16.80;99.80
18147;DHT22;9199;48.832;9.182;2023-05-25T08:13:22;17.10;98.90
18147;DHT22;9199;48.832;9.182;2023-05-25T08:15:49;17.50;98.40
18147;DHT22;9199;48.832;9.182;2023-05-25T08:18:17;17.80;98.50
18147;DHT22;9199;48.832;9.182;2023-05-25T08:20:44;18.30;96.90
18147;DHT22;9199;48.832;9.182;2023-05-25T08:23:12;18.50;96.20
18147;DHT22;9199;48.832;9.182;2023-05-25T08:25:38;18.90;95.90
18147;DHT22;9199;48.832;9.182;2023-05-25T08:28:05;19.30;95.40
18147;DHT22;9199;48.832;9.182;2023-05-25T08:30:32;19.30;95.20
18147;DHT22;9199;48.832;9.182;2023-05-25T08:32:58;19.20;94.70
18147;DHT22;9199;48.832;9.182;2023-05-25T08:35:26;18.90;94.90
18147;DHT22;9199;48.832;9.182;2023-05-25T08:37:53;18.60;95.10
18147;DHT22;9199;48.832;9.182;2023-05-25T08:40:22;18.40;95.50
18147;DHT22;9199;48.832;9.182;2023-05-25T08:42:52;18.40;96.00
18147;DHT22;9199;48.832;9.182;2023-05-25T08:45:19;18.40;95.40
18147;DHT22;9199;48.832;9.182;2023-05-25T08:47:47;18.50;96.10
18147;DHT22;9199;48.832;9.182;2023-05-25T08:50:17;18.80;95.50
18147;DHT22;9199;48.832;9.182;2023-05-25T08:52:48;19.30;95.40
18147;DHT22;9199;48.832;9.182;2023-05-25T08:55:17;19.70;94.30
18147;DHT22;9199;48.832;9.182;2023-05-25T08:57:53;20.00;94.70
18147;DHT22;9199;48.832;9.182;2023-05-25T09:00:24;20.20;94.60
18147;DHT22;9199;48.832;9.182;2023-05-25T09:02:56;20.40;93.70
18147;DHT22;9199;48.832;9.182;2023-05-25T09:05:25;20.40;93.50
18147;DHT22;9199;48.832;9.182;2023-05-25T09:07:53;20.40;93.30
18147;DHT22;9199;48.832;9.182;2023-05-25T09:10:22;20.30;93.30
18147;DHT22;9199;48.832;9.182;2023-05-25T09:12:51;20.40;93.80
18147;DHT22;9199;48.832;9.182;2023-05-25T09:15:18;20.30;93.40
18147;DHT22;9199;48.832;9.182;2023-05-25T09:17:45;20.70;93.10
18147;DHT22;9199;48.832;9.182;2023-05-25T09:20:12;20.90;92.80
18147;DHT22;9199;48.832;9.182;2023-05-25T09:22:40;20.90;92.10
18147;DHT22;9199;48.832;9.182;2023-05-25T09:25:09;20.90;91.90
18147;DHT22;9199;48.832;9.182;2023-05-25T09:27:37;20.90;92.20
18147;DHT22;9199;48.832;9.182;2023-05-25T09:30:04;21.10;91.60
18147;DHT22;9199;48.832;9.182;2023-05-25T09:32:32;21.30;91.50
18147;DHT22;9199;48.832;9.182;2023-05-25T09:35:06;21.60;91.60
18147;DHT22;9199;48.832;9.182;2023-05-25T09:37:33;21.90;90.60
18147;DHT22;9199;48.832;9.182;2023-05-25T09:40:00;22.50;90.60
18147;DHT22;9199;48.832;9.182;2023-05-25T09:42:28;23.30;89.00
18147;DHT22;9199;48.832;9.182;2023-05-25T09:44:57;23.80;87.10
18147;DHT22;9199;48.832;9.182;2023-05-25T09:47:23;24.10;83.10
18147;DHT22;9199;48.832;9.182;2023-05-25T09:49:51;24.50;81.70
18147;DHT22;9199;48.832;9.182;2023-05-25T09:52:17;24.90;82.20
18147;DHT22;9199;48.832;9.182;2023-05-25T09:54:44;24.60;80.70
18147;DHT22;9199;48.832;9.182;2023-05-25T09:57:11;24.00;81.20
18147;DHT22;9199;48.832;9.182;2023-05-25T09:59:40;23.90;80.00
18147;DHT22;9199;48.832;9.182;2023-05-25T10:02:07;24.70;80.70
18147;DHT22;9199;48.832;9.182;2023-05-25T10:04:34;25.40;77.70
18147;DHT22;9199;48.832;9.182;2023-05-25T10:07:01;26.30;75.00
18147;DHT22;9199;48.832;9.182;2023-05-25T10:09:29;26.20;73.90
18147;DHT22;9199;48.832;9.182;2023-05-25T10:11:57;26.40;72.40
18147;DHT22;9199;48.832;9.182;2023-05-25T10:14:27;26.80;71.90
18147;DHT22;9199;48.832;9.182;2023-05-25T10:16:57;26.60;72.40
18147;DHT22;9199;48.832;9.182;2023-05-25T10:19:29;26.30;72.30
18147;DHT22;9199;48.832;9.182;2023-05-25T10:22:00;25.50;74.10
18147;DHT22;9199;48.832;9.182;2023-05-25T10:24:33;25.00;73.60
18147;DHT22;9199;48.832;9.182;2023-05-25T10:27:02;25.10;75.90
18147;DHT22;9199;48.832;9.182;2023-05-25T10:29:29;25.10;73.40
18147;DHT22;9199;48.832;9.182;2023-05-25T10:31:58;24.80;75.00
18147;DHT22;9199;48.832;9.182;2023-05-25T10:34:25;24.30;75.70
18147;DHT22;9199;48.832;9.182;2023-05-25T10:36:54;24.40;75.50
18147;DHT22;9199;48.832;9.182;2023-05-25T10:39:21;25.20;75.30
18147;DHT22;9199;48.832;9.182;2023-05-25T10:41:49;25.10;73.00
18147;DHT22;9199;48.832;9.182;2023-05-25T10:44:17;24.60;75.80
18147;DHT22;9199;48.832;9.182;2023-05-25T10:46:44;24.30;75.70
18147;DHT22;9199;48.832;9.182;2023-05-25T10:49:12;24.30;75.50
18147;DHT22;9199;48.832;9.182;2023-05-25T10:51:40;24.50;75.90
18147;DHT22;9199;48.832;9.182;2023-05-25T10:54:12;24.30;74.60
18147;DHT22;9199;48.832;9.182;2023-05-25T10:57:06;23.60;75.60
18147;DHT22;9199;48.832;9.182;2023-05-25T10:59:33;23.20;77.60
18147;DHT22;9199;48.832;9.182;2023-05-25T11:02:05;23.20;77.70
18147;DHT22;9199;48.832;9.182;2023-05-25T11:04:33;23.00;78.10
18147;DHT22;9199;48.832;9.182;2023-05-25T11:07:07;22.90;77.70
18147;DHT22;9199;48.832;9.182;2023-05-25T11:09:40;23.00;78.20
18147;DHT22;9199;48.832;9.182;2023-05-25T11:12:17;23.30;78.50
18147;DHT22;9199;48.832;9.182;2023-05-25T11:15:08;23.70;76.50
18147;DHT22;9199;48.832;9.182;2023-05-25T11:17:44;23.90;75.70
18147;DHT22;9199;48.832;9.182;2023-05-25T11:20:25;24.50;77.00
18147;DHT22;9199;48.832;9.182;2023-05-25T11:22:52;24.70;75.70
18147;DHT22;9199;48.832;9.182;2023-05-25T11:25:35;25.00;74.70
18147;DHT22;9199;48.832;9.182;2023-05-25T11:28:03;24.70;73.50
18147;DHT22;9199;48.832;9.182;2023-05-25T11:30:30;24.80;73.30
18147;DHT22;9199;48.832;9.182;2023-05-25T11:33:00;24.70;75.00
18147;DHT22;9199;48.832;9.182;2023-05-25T11:35:30;24.90;75.00
18147;DHT22;9199;48.832;9.182;2023-05-25T11:37:58;24.90;73.70
18147;DHT22;9199;48.832;9.182;2023-05-25T11:40:28;24.70;73.00
18147;DHT22;9199;48.832;9.182;2023-05-25T11:42:57;24.90;73.20
18147;DHT22;9199;48.832;9.182;2023-05-25T11:45:27;24.70;72.10
18147;DHT22;9199;48.832;9.182;2023-05-25T11:47:54;24.80;72.90
18147;DHT22;9199;48.832;9.182;2023-05-25T11:50:21;24.90;73.80
18147;DHT22;9199;48.832;9.182;2023-05-25T11:52:49;25.40;71.00
18147;DHT22;9199;48.832;9.182;2023-05-25T11:55:16;25.90;70.00
18147;DHT22;9199;48.832;9.182;2023-05-25T11:57:43;26.00;70.70
18147;DHT22;9199;48.832;9.182;2023-05-25T12:00:11;25.70;71.10
18147;DHT22;9199;48.832;9.182;2023-05-25T12:02:39;25.10;70.90
18147;DHT22;9199;48.832;9.182;2023-05-25T12:05:06;24.60;72.20
18147;DHT22;9199;48.832;9.182;2023-05-25T12:07:34;24.20;72.80
18147;DHT22;9199;48.832;9.182;2023-05-25T12:10:10;24.20;74.60
18147;DHT22;9199;48.832;9.182;2023-05-25T12:12:39;24.50;72.90
18147;DHT22;9199;48.832;9.182;2023-05-25T12:15:08;24.90;72.20
18147;DHT22;9199;48.832;9.182;2023-05-25T12:17:35;25.10;71.90
18147;DHT22;9199;48.832;9.182;2023-05-25T12:20:02;24.70;72.60
18147;DHT22;9199;48.832;9.182;2023-05-25T12:22:31;24.50;73.10
18147;DHT22;9199;48.832;9.182;2023-05-25T12:24:58;24.30;73.40
18147;DHT22;9199;48.832;9.182;2023-05-25T12:27:26;24.30;72.50
18147;DHT22;9199;48.832;9.182;2023-05-25T12:29:57;24.40;72.00
18147;DHT22;9199;48.832;9.182;2023-05-25T12:32:24;24.90;71.90
18147;DHT22;9199;48.832;9.182;2023-05-25T12:35:00;25.10;71.20
18147;DHT22;9199;48.832;9.182;2023-05-25T12:37:27;24.80;71.80
18147;DHT22;9199;48.832;9.182;2023-05-25T12:39:54;24.40;72.40
18147;DHT22;9199;48.832;9.182;2023-05-25T12:42:22;24.30;72.50
18147;DHT22;9199;48.832;9.182;2023-05-25T12:44:54;24.50;72.90
18147;DHT22;9199;48.832;9.182;2023-05-25T12:47:22;24.50;71.90
18147;DHT22;9199;48.832;9.182;2023-05-25T12:49:50;24.50;72.90
18147;DHT22;9199;48.832;9.182;2023-05-25T12:52:33;24.90;74.50
18147;DHT22;9199;48.832;9.182;2023-05-25T12:55:22;25.20;71.20
18147;DHT22;9199;48.832;9.182;2023-05-25T12:57:51;25.20;71.20
18147;DHT22;9199;48.832;9.182;2023-05-25T13:00:24;25.40;70.80
18147;DHT22;9199;48.832;9.182;2023-05-25T13:02:52;26.00;70.70
18147;DHT22;9199;48.832;9.182;2023-05-25T13:05:21;26.30;70.00
18147;DHT22;9199;48.832;9.182;2023-05-25T13:07:48;26.10;68.20
18147;DHT22;9199;48.832;9.182;2023-05-25T13:10:15;25.90;69.10
18147;DHT22;9199;48.832;9.182;2023-05-25T13:12:43;25.50;70.80
18147;DHT22;9199;48.832;9.182;2023-05-25T13:15:10;25.50;69.00
18147;DHT22;9199;48.832;9.182;2023-05-25T13:17:40;25.50;70.40
18147;DHT22;9199;48.832;9.182;2023-05-25T13:20:07;25.60;69.30
18147;DHT22;9199;48.832;9.182;2023-05-25T13:22:34;26.20;69.10
18147;DHT22;9199;48.832;9.182;2023-05-25T13:25:01;27.20;66.50
18147;DHT22;9199;48.832;9.182;2023-05-25T13:27:27;27.80;65.20
18147;DHT22;9199;48.832;9.182;2023-05-25T13:29:54;28.80;64.50
18147;DHT22;9199;48.832;9.182;2023-05-25T13:32:21;29.10;61.60
18147;DHT22;9199;48.832;9.182;2023-05-25T13:34:49;28.90;61.60
18147;DHT22;9199;48.832;9.182;2023-05-25T13:37:18;28.00;62.70
18147;DHT22;9199;48.832;9.182;2023-05-25T13:39:44;27.70;61.70
18147;DHT22;9199;48.832;9.182;2023-05-25T13:42:11;27.60;61.80
18147;DHT22;9199;48.832;9.182;2023-05-25T13:44:38;27.20;64.00
18147;DHT22;9199;48.832;9.182;2023-05-25T13:47:05;26.50;64.90
18147;DHT22;9199;48.832;9.182;2023-05-25T13:49:31;26.30;64.90
18147;DHT22;9199;48.832;9.182;2023-05-25T13:51:59;26.40;65.90
18147;DHT22;9199;48.832;9.182;2023-05-25T13:54:26;26.00;65.00
18147;DHT22;9199;48.832;9.182;2023-05-25T13:56:53;26.10;66.90
18147;DHT22;9199;48.832;9.182;2023-05-25T13:59:19;26.50;65.50
18147;DHT22;9199;48.832;9.182;2023-05-25T14:01:46;26.60;64.40
18147;DHT22;9199;48.832;9.182;2023-05-25T14:04:13;26.40;64.70
18147;DHT22;9199;48.832;9.182;2023-05-25T14:06:40;26.80;64.10
18147;DHT22;9199;48.832;9.182;2023-05-25T14:09:09;26.90;64.00
18147;DHT22;9199;48.832;9.182;2023-05-25T14:11:36;27.10;63.50
18147;DHT22;9199;48.832;9.182;2023-05-25T14:14:03;27.10;63.90
18147;DHT22;9199;48.832;9.182;2023-05-25T14:16:32;26.90;63.90
18147;DHT22;9199;48.832;9.182;2023-05-25T14:18:59;26.50;64.40
18147;DHT22;9199;48.832;9.182;2023-05-25T14:21:27;26.30;64.80
18147;DHT22;9199;48.832;9.182;2023-05-25T14:23:55;26.50;64.50
18147;DHT22;9199;48.832;9.182;2023-05-25T14:26:23;26.80;63.10
18147;DHT22;9199;48.832;9.182;2023-05-25T14:28:51;26.80;62.30
18147;DHT22;9199;48.832;9.182;2023-05-25T14:31:18;26.30;62.20
18147;DHT22;9199;48.832;9.182;2023-05-25T14:33:45;26.00;65.10
18147;DHT22;9199;48.832;9.182;2023-05-25T14:36:12;26.00;65.70
18147;DHT22;9199;48.832;9.182;2023-05-25T14:38:38;26.20;65.70
18147;DHT22;9199;48.832;9.182;2023-05-25T14:41:05;27.30;64.00
18147;DHT22;9199;48.832;9.182;2023-05-25T14:43:33;28.80;59.30
18147;DHT22;9199;48.832;9.182;2023-05-25T14:46:00;30.00;58.50
18147;DHT22;9199;48.832;9.182;2023-05-25T14:48:26;31.30;55.50
18147;DHT22;9199;48.832;9.182;2023-05-25T14:50:53;31.30;54.30
18147;DHT22;9199;48.832;9.182;2023-05-25T14:53:20;31.40;53.20
18147;DHT22;9199;48.832;9.182;2023-05-25T14:55:46;31.00;53.90
18147;DHT22;9199;48.832;9.182;2023-05-25T14:58:13;31.40;52.90
18147;DHT22;9199;48.832;9.182;2023-05-25T15:00:41;32.30;50.60
18147;DHT22;9199;48.832;9.182;2023-05-25T15:03:08;32.90;49.00
18147;DHT22;9199;48.832;9.182;2023-05-25T15:05:35;32.50;49.50
18147;DHT22;9199;48.832;9.182;2023-05-25T15:08:01;32.40;49.00
18147;DHT22;9199;48.832;9.182;2023-05-25T15:10:28;30.70;51.10
18147;DHT22;9199;48.832;9.182;2023-05-25T15:12:55;29.10;53.10
18147;DHT22;9199;48.832;9.182;2023-05-25T15:15:21;28.50;54.90
18147;DHT22;9199;48.832;9.182;2023-05-25T15:17:49;28.20;54.30
18147;DHT22;9199;48.832;9.182;2023-05-25T15:20:16;27.60;56.60
18147;DHT22;9199;48.832;9.182;2023-05-25T15:22:43;26.90;58.00
18147;DHT22;9199;48.832;9.182;2023-05-25T15:25:10;26.20;59.50
18147;DHT22;9199;48.832;9.182;2023-05-25T15:27:37;25.70;60.10
18147;DHT22;9199;48.832;9.182;2023-05-25T15:30:05;25.30;61.40
18147;DHT22;9199;48.832;9.182;2023-05-25T15:32:32;25.10;61.40
18147;DHT22;9199;48.832;9.182;2023-05-25T15:35:00;24.70;62.00
18147;DHT22;9199;48.832;9.182;2023-05-25T15:37:26;24.30;63.90
18147;DHT22;9199;48.832;9.182;2023-05-25T15:39:53;24.10;65.30
18147;DHT22;9199;48.832;9.182;2023-05-25T15:42:20;24.00;66.00
18147;DHT22;9199;48.832;9.182;2023-05-25T15:44:46;24.20;64.50
18147;DHT22;9199;48.832;9.182;2023-05-25T15:47:13;24.10;65.10
18147;DHT22;9199;48.832;9.182;2023-05-25T15:49:40;24.10;65.60
18147;DHT22;9199;48.832;9.182;2023-05-25T15:52:08;24.20;65.20